createdAt,value
2023-03-29T00:05:02.248Z,12.33
2023-03-29T00:10:05.862Z,12.75
2023-03-29T00:15:09.915Z,12.90
2023-03-29T00:20:12.822Z,12.87
2023-03-29T00:25:15.734Z,12.94
2023-03-29T00:30:18.426Z,13.20
2023-03-29T00:35:20.869Z,12.81
2023-03-29T00:40:23.298Z,12.96
2023-03-29T00:45:30.674Z,12.93
2023-03-29T00:50:47.508Z,13.49
2023-03-29T00:55:54.840Z,13.19
2023-03-29T01:01:04.325Z,13.28
2023-03-29T01:06:09.364Z,12.90
2023-03-29T01:11:20.115Z,12.93
2023-03-29T01:16:25.751Z,12.90
2023-03-29T01:21:45.260Z,12.83
2023-03-29T01:27:09.515Z,12.71
2023-03-29T01:32:25.177Z,13.19
2023-03-29T01:37:41.515Z,12.95
2023-03-29T01:43:30.743Z,13.04
2023-03-29T01:48:47.015Z,12.69
2023-03-29T01:54:18.571Z,12.47
2023-03-29T01:59:28.365Z,13.34
2023-03-29T02:04:40.526Z,12.67
2023-03-29T02:09:44.411Z,12.03
2023-03-29T02:14:47.035Z,12.14
2023-03-29T02:19:56.327Z,12.37
2023-03-29T02:24:59.554Z,12.20
2023-03-29T02:30:01.844Z,12.25
2023-03-29T02:35:16.880Z,12.67
2023-03-29T02:40:22.343Z,12.30
2023-03-29T02:45:26.219Z,12.37
2023-03-29T02:50:36.124Z,12.39
2023-03-29T02:55:39.544Z,12.70
2023-03-29T03:00:48.871Z,12.72
2023-03-29T03:05:52.676Z,12.27
2023-03-29T03:10:55.356Z,12.46
2023-03-29T03:15:57.682Z,12.35
2023-03-29T03:21:01.905Z,12.34
2023-03-29T03:26:04.794Z,12.62
2023-03-29T03:31:08.812Z,12.36
2023-03-29T03:36:47.435Z,12.44
2023-03-29T03:41:49.760Z,12.51
2023-03-29T03:46:53.506Z,12.22
2023-03-29T03:51:56.837Z,12.12
2023-03-29T03:56:59.359Z,12.35
2023-03-29T04:02:10.354Z,12.29
2023-03-29T04:07:14.413Z,12.39
2023-03-29T04:12:40.559Z,12.36
2023-03-29T04:17:44.222Z,12.48
2023-03-29T04:23:06.863Z,12.48
2023-03-29T04:28:12.858Z,12.45
2023-03-29T04:33:24.703Z,12.36
2023-03-29T04:38:38.116Z,12.57
2023-03-29T04:43:41.420Z,12.40
2023-03-29T04:48:56.703Z,12.09
2023-03-29T04:54:08.605Z,12.11
2023-03-29T04:59:37.118Z,12.27
2023-03-29T05:04:50.566Z,12.70
2023-03-29T05:09:54.417Z,12.29
2023-03-29T05:14:57.683Z,12.23
2023-03-29T05:20:07.128Z,12.45
2023-03-29T05:25:11.936Z,12.42
2023-03-29T05:30:16.777Z,12.13
2023-03-29T05:35:39.189Z,12.31
2023-03-29T05:40:43.768Z,12.52
2023-03-29T05:46:06.394Z,12.25
2023-03-29T05:51:10.000Z,12.30
2023-03-29T05:56:16.113Z,12.66
2023-03-29T06:01:19.320Z,12.42
2023-03-29T06:06:31.972Z,12.66
2023-03-29T06:11:35.644Z,12.36
2023-03-29T06:16:47.225Z,12.67
2023-03-29T06:21:53.878Z,12.55
2023-03-29T06:27:00.430Z,12.64
2023-03-29T06:32:04.112Z,12.87
2023-03-29T06:37:49.500Z,13.10
2023-03-29T06:42:59.607Z,12.42
2023-03-29T06:48:08.489Z,12.30
2023-03-29T06:53:11.701Z,13.26
2023-03-29T06:58:15.610Z,13.09
2023-03-29T07:03:23.401Z,13.00
2023-03-29T07:08:31.813Z,13.12
2023-03-29T07:13:42.999Z,13.38
2023-03-29T07:18:47.840Z,13.46
2023-03-29T07:24:01.873Z,13.15
2023-03-29T07:29:04.397Z,13.25
2023-03-29T07:34:11.235Z,13.01
2023-03-29T07:39:15.533Z,12.77
2023-03-29T07:44:27.048Z,13.29
2023-03-29T07:49:30.094Z,13.71
2023-03-29T07:54:32.921Z,13.34
2023-03-29T07:59:54.362Z,13.46
2023-03-29T08:05:03.310Z,13.33
2023-03-29T08:10:07.037Z,13.54
2023-03-29T08:15:24.546Z,13.25
2023-03-29T08:20:27.501Z,13.54
2023-03-29T08:25:35.718Z,13.33
2023-03-29T08:30:38.726Z,13.69
2023-03-29T08:35:42.110Z,13.58
2023-03-29T08:40:56.367Z,13.51
2023-03-29T08:46:23.201Z,13.78
2023-03-29T08:51:55.542Z,13.44
2023-03-29T08:57:12.609Z,13.46
2023-03-29T09:02:24.824Z,13.67
2023-03-29T09:07:31.925Z,13.73
2023-03-29T09:12:59.212Z,14.02
2023-03-29T09:18:25.898Z,14.16
2023-03-29T09:24:07.397Z,13.86
2023-03-29T09:29:47.493Z,14.17
2023-03-29T09:35:34.794Z,14.46
2023-03-29T09:40:53.855Z,14.58
2023-03-29T09:46:06.734Z,14.70
2023-03-29T09:51:11.574Z,14.92
2023-03-29T09:56:15.954Z,15.19
2023-03-29T10:01:45.405Z,15.43
2023-03-29T10:06:52.728Z,15.76
2023-03-29T10:12:02.457Z,15.51
2023-03-29T10:17:20.240Z,15.44
2023-03-29T10:22:32.039Z,15.51
2023-03-29T10:27:37.403Z,15.94
2023-03-29T10:32:40.902Z,16.92
2023-03-29T10:37:48.405Z,16.62
2023-03-29T10:42:54.098Z,17.54
2023-03-29T10:47:58.559Z,17.49
2023-03-29T10:53:03.116Z,18.04
2023-03-29T10:58:29.679Z,18.25
2023-03-29T11:04:34.400Z,18.36
2023-03-29T11:10:44.559Z,18.33
2023-03-29T11:15:55.313Z,18.42
2023-03-29T11:21:41.685Z,18.71
2023-03-29T11:27:32.434Z,18.69
2023-03-29T11:32:44.756Z,18.81
2023-03-29T11:38:03.844Z,18.91
2023-03-29T11:43:32.359Z,18.81
2023-03-29T11:48:52.101Z,19.01
2023-03-29T11:54:05.814Z,19.23
2023-03-29T11:59:23.673Z,19.54
2023-03-29T12:04:41.510Z,19.74
2023-03-29T12:09:50.453Z,19.84
2023-03-29T12:15:09.142Z,19.41
2023-03-29T12:20:23.561Z,19.95
2023-03-29T12:25:38.170Z,20.22
2023-03-29T12:31:09.612Z,19.95
2023-03-29T12:36:50.853Z,20.73
2023-03-29T12:42:24.159Z,20.50
2023-03-29T12:47:53.564Z,20.48
2023-03-29T12:53:22.413Z,20.78
2023-03-29T12:58:52.066Z,20.39
2023-03-29T13:04:21.566Z,20.98
2023-03-29T13:09:30.077Z,20.25
2023-03-29T13:14:37.307Z,20.40
2023-03-29T13:20:12.590Z,20.50
2023-03-29T13:25:46.247Z,20.27
2023-03-29T13:31:35.379Z,20.18
2023-03-29T13:37:14.938Z,20.41
2023-03-29T13:42:34.306Z,20.42
2023-03-29T13:47:54.877Z,20.75
2023-03-29T13:53:15.840Z,21.15
2023-03-29T13:58:43.296Z,22.04
2023-03-29T14:03:51.483Z,21.77
2023-03-29T14:08:54.705Z,21.85
2023-03-29T14:13:59.871Z,20.90
2023-03-29T14:19:34.384Z,20.98
2023-03-29T14:24:41.601Z,20.54
2023-03-29T14:29:48.402Z,20.66
2023-03-29T14:34:51.860Z,20.72
2023-03-29T14:39:54.708Z,20.40
2023-03-29T14:45:05.596Z,20.70
2023-03-29T14:50:19.362Z,20.69
2023-03-29T14:55:26.409Z,20.40
2023-03-29T15:00:50.787Z,20.12
2023-03-29T15:05:59.071Z,20.19
2023-03-29T15:11:01.874Z,20.36
2023-03-29T15:16:08.113Z,20.87
2023-03-29T15:21:15.724Z,20.64
2023-03-29T15:26:31.194Z,20.52
2023-03-29T15:31:39.345Z,20.75
2023-03-29T15:36:45.133Z,20.69
2023-03-29T15:41:51.391Z,20.20
2023-03-29T15:46:55.211Z,20.00
2023-03-29T15:51:57.453Z,19.87
2023-03-29T15:57:15.043Z,20.09
2023-03-29T16:02:20.231Z,20.08
2023-03-29T16:07:22.753Z,20.06
2023-03-29T16:12:24.904Z,19.85
2023-03-29T16:17:27.292Z,20.02
2023-03-29T16:22:29.541Z,20.01
2023-03-29T16:27:32.777Z,19.90
2023-03-29T16:32:34.908Z,20.20
2023-03-29T16:37:37.184Z,20.18
2023-03-29T16:42:39.951Z,20.40
2023-03-29T16:47:45.968Z,20.42
2023-03-29T16:52:48.813Z,20.36
2023-03-29T16:57:51.230Z,20.70
2023-03-29T17:02:53.447Z,20.79
2023-03-29T17:07:56.246Z,20.56
2023-03-29T17:12:58.491Z,20.17
2023-03-29T17:18:01.202Z,19.84
2023-03-29T17:23:03.321Z,19.30
2023-03-29T17:28:05.808Z,19.24
2023-03-29T17:33:08.151Z,18.87
2023-03-29T17:38:11.935Z,19.03
2023-03-29T17:43:14.252Z,19.01
2023-03-29T17:48:16.614Z,18.52
2023-03-29T17:53:19.034Z,18.58
2023-03-29T17:58:21.463Z,18.72
2023-03-29T18:03:23.773Z,19.09
2023-03-29T18:08:26.132Z,18.63
2023-03-29T18:13:28.291Z,18.66
2023-03-29T18:18:30.675Z,19.06
2023-03-29T18:23:33.951Z,19.12
2023-03-29T18:28:37.561Z,19.06
2023-03-29T18:33:39.829Z,19.40
2023-03-29T18:38:43.702Z,19.07
2023-03-29T18:43:47.447Z,19.28
2023-03-29T18:48:49.552Z,19.22
2023-03-29T18:53:52.709Z,19.56
2023-03-29T18:58:55.354Z,19.61
2023-03-29T19:03:57.605Z,19.53
2023-03-29T19:09:02.162Z,19.55
2023-03-29T19:14:08.236Z,19.95
2023-03-29T19:19:10.913Z,19.52
2023-03-29T19:24:14.059Z,19.89
2023-03-29T19:29:16.377Z,19.91
2023-03-29T19:34:21.240Z,19.92
2023-03-29T19:39:25.187Z,19.70
2023-03-29T19:44:28.113Z,19.83
2023-03-29T19:49:30.716Z,19.77
2023-03-29T19:54:32.960Z,19.64
2023-03-29T19:59:35.790Z,19.84
2023-03-29T20:04:38.381Z,19.58
2023-03-29T20:09:44.560Z,19.62
2023-03-29T20:14:47.363Z,19.69
2023-03-29T20:19:49.500Z,19.59
2023-03-29T20:24:52.443Z,19.61
2023-03-29T20:29:54.575Z,19.60
2023-03-29T20:34:56.881Z,19.72
2023-03-29T20:40:00.965Z,19.74
2023-03-29T20:45:04.367Z,19.59
2023-03-29T20:50:07.746Z,19.78
2023-03-29T20:55:12.474Z,19.57
2023-03-29T21:00:16.125Z,19.55
2023-03-29T21:05:19.426Z,19.35
2023-03-29T21:10:23.860Z,19.81
2023-03-29T21:15:28.613Z,19.79
2023-03-29T21:20:32.287Z,19.73
2023-03-29T21:25:34.434Z,20.03
2023-03-29T21:30:36.883Z,19.97
2023-03-29T21:35:39.124Z,19.96
2023-03-29T21:40:41.323Z,20.36
2023-03-29T21:45:43.589Z,20.12
2023-03-29T21:50:50.965Z,20.30
2023-03-29T21:55:53.844Z,20.03
2023-03-29T22:00:57.166Z,19.90
2023-03-29T22:06:05.195Z,19.48
2023-03-29T22:11:11.106Z,19.78
2023-03-29T22:16:16.514Z,19.29
2023-03-29T22:21:28.335Z,19.44
2023-03-29T22:26:32.631Z,18.88
2023-03-29T22:31:34.914Z,19.00
2023-03-29T22:36:37.576Z,19.18
2023-03-29T22:41:39.962Z,18.76
2023-03-29T22:46:42.505Z,19.27
2023-03-29T22:51:44.987Z,18.93
2023-03-29T22:56:47.370Z,18.71
2023-03-29T23:01:50.205Z,18.22
2023-03-29T23:06:53.308Z,18.21
2023-03-29T23:11:55.848Z,18.87
2023-03-29T23:16:58.412Z,18.61
2023-03-29T23:22:00.768Z,18.64
2023-03-29T23:27:05.075Z,19.31
2023-03-29T23:32:07.520Z,19.16
2023-03-29T23:37:09.958Z,18.77
2023-03-29T23:42:12.377Z,18.52
2023-03-29T23:47:14.684Z,19.43
2023-03-29T23:52:17.675Z,20.00
2023-03-29T23:57:21.517Z,20.22
